Time;durP1;ratioP1;P1;durP2;ratioP2;P2;SDS_P1;SDS_P2;PMS_P1;PMS_P2;Temp;Humidity;BMP_temperature;BMP_pressure;BME280_temperature;BME280_humidity;BME280_pressure;Samples;Min_cycle;Max_cycle;Signal;HPM_P1;HPM_P2
2021/06/08 00:00:52;;;;;;;22.25;16.83;;;;;;;15.02;73.72;102035.97;5030429;28;20147;-71
2021/06/08 00:03:18;;;;;;;25.88;17.92;;;;;;;14.98;74.08;102033.69;5030671;28;20036;-71
2021/06/08 00:05:43;;;;;;;25.23;18.60;;;;;;;14.90;74.45;102036.25;5029062;28;20566;-71
2021/06/08 00:08:08;;;;;;;24.25;17.85;;;;;;;14.85;74.34;102028.06;5030643;28;20033;-70
2021/06/08 00:10:34;;;;;;;24.35;17.85;;;;;;;14.84;74.92;102030.81;5030169;28;20043;-71
2021/06/08 00:12:59;;;;;;;22.60;17.13;;;;;;;14.84;74.78;102030.81;5027107;28;20043;-71
2021/06/08 00:15:25;;;;;;;21.98;16.48;;;;;;;14.83;74.86;102024.78;5028944;28;20029;-71
2021/06/08 00:17:50;;;;;;;24.08;16.73;;;;;;;14.83;74.88;102024.78;5028673;28;20110;-71
2021/06/08 00:20:16;;;;;;;24.10;16.90;;;;;;;14.82;74.71;102028.34;5029976;28;20125;-71
2021/06/08 00:22:41;;;;;;;22.42;17.23;;;;;;;14.82;74.91;102022.31;5029953;28;21034;-71
2021/06/08 00:25:07;;;;;;;21.95;16.85;;;;;;;14.78;74.98;102021.81;5029696;28;20022;-71
2021/06/08 00:27:33;;;;;;;23.92;16.85;;;;;;;14.75;75.04;102022.13;5042030;28;20037;-71
2021/06/08 00:29:58;;;;;;;23.35;17.25;;;;;;;14.72;75.17;102025.03;5043197;28;20457;-71
2021/06/08 00:32:24;;;;;;;19.60;15.48;;;;;;;14.70;75.21;102026.97;5028409;28;20344;-71
2021/06/08 00:34:49;;;;;;;22.55;17.95;;;;;;;14.67;75.11;102033.31;5029422;28;20060;-71
2021/06/08 00:37:15;;;;;;;20.95;16.67;;;;;;;14.65;75.09;102021.41;5028374;28;20042;-71
2021/06/08 00:39:40;;;;;;;24.67;18.92;;;;;;;14.62;75.27;102025.13;5029915;28;20707;-71
2021/06/08 00:42:07;;;;;;;25.33;18.42;;;;;;;14.62;75.38;102032.13;5029773;28;20033;-71
2021/06/08 00:44:32;;;;;;;25.52;17.40;;;;;;;14.60;75.17;102027.09;5029432;28;20421;-71
2021/06/08 00:46:59;;;;;;;23.35;16.73;;;;;;;14.57;75.46;102036.03;5028552;28;20042;-71
2021/06/08 00:49:24;;;;;;;22.33;16.55;;;;;;;14.53;75.87;102031.25;5029017;28;20593;-71
2021/06/08 00:51:50;;;;;;;23.30;17.42;;;;;;;14.50;75.88;102027.13;5028974;28;20059;-71
2021/06/08 00:54:15;;;;;;;26.52;16.73;;;;;;;14.51;75.60;102035.78;5029461;28;20120;-71
2021/06/08 00:56:43;;;;;;;25.77;18.35;;;;;;;14.48;75.58;102029.06;5029028;28;20155;-71
2021/06/08 00:59:10;;;;;;;26.05;17.50;;;;;;;14.48;75.38;102023.84;5028514;28;20060;-71
2021/06/08 01:01:36;;;;;;;24.17;17.38;;;;;;;14.47;75.26;102027.44;5029151;28;20040;-71
2021/06/08 01:04:04;;;;;;;25.70;18.83;;;;;;;14.44;75.25;102025.13;5042695;28;20513;-71
2021/06/08 01:06:33;;;;;;;20.90;15.88;;;;;;;14.39;75.61;102014.31;5020737;28;20029;-71
2021/06/08 01:08:59;;;;;;;26.25;16.33;;;;;;;14.36;75.72;102023.28;5029028;28;20033;-71
2021/06/08 01:11:24;;;;;;;23.33;17.77;;;;;;;14.32;75.85;102024.56;5028883;28;20596;-71
2021/06/08 01:13:50;;;;;;;23.70;17.48;;;;;;;14.24;76.23;102018.44;5043039;28;20568;-71
2021/06/08 01:16:16;;;;;;;25.88;17.92;;;;;;;14.19;76.35;102013.69;5020219;28;20105;-71
2021/06/08 01:18:41;;;;;;;23.85;17.95;;;;;;;14.18;76.41;102019.84;5027025;28;20618;-71
2021/06/08 01:21:08;;;;;;;24.75;19.27;;;;;;;14.18;76.18;102019.84;5028284;28;20453;-71
2021/06/08 01:23:35;;;;;;;23.10;17.65;;;;;;;14.17;76.09;102021.66;5024009;28;20422;-70
2021/06/08 01:26:01;;;;;;;24.10;18.23;;;;;;;14.18;75.98;102022.47;5024956;28;20047;-71
2021/06/08 01:28:29;;;;;;;26.98;18.42;;;;;;;14.16;76.05;102027.03;5028275;28;20039;-71
2021/06/08 01:30:56;;;;;;;24.90;18.33;;;;;;;14.13;76.22;102027.34;5029212;28;20044;-71
2021/06/08 01:33:24;;;;;;;27.08;19.30;;;;;;;14.11;76.24;102021.44;5025843;28;20049;-71
2021/06/08 01:35:51;;;;;;;26.70;19.17;;;;;;;14.09;76.24;102020.75;5026985;28;20030;-71
2021/06/08 01:38:18;;;;;;;24.55;18.83;;;;;;;14.07;76.19;102028.75;5042252;28;20043;-70
2021/06/08 01:40:47;;;;;;;29.15;19.27;;;;;;;14.05;76.49;102038.47;5044367;28;20036;-70
2021/06/08 01:43:14;;;;;;;27.35;17.92;;;;;;;14.00;76.66;102035.53;5027773;28;20026;-70
2021/06/08 01:45:40;;;;;;;28.45;18.27;;;;;;;13.96;76.96;102036.78;5027425;28;20025;-70
2021/06/08 01:48:06;;;;;;;28.48;18.45;;;;;;;13.95;76.97;102032.53;5027735;28;20510;-71
2021/06/08 01:50:31;;;;;;;30.33;19.38;;;;;;;13.93;76.72;102037.91;5027582;28;20044;-70
2021/06/08 01:53:23;;;;;;;23.42;17.95;;;;;;;13.93;76.48;102035.28;5030636;28;20108;-71
2021/06/08 01:55:51;;;;;;;23.25;17.42;;;;;;;13.91;76.45;102041.63;5023995;28;20044;-71
2021/06/08 01:59:09;;;;;;;27.67;18.67;;;;;;;13.89;76.43;102043.56;5027213;28;20033;-71
2021/06/08 02:02:06;;;;;;;23.90;17.40;;;;;;;13.86;76.17;102039.44;4981576;28;20040;-70
2021/06/08 02:04:46;;;;;;;22.67;17.52;;;;;;;13.83;76.17;102039.75;5027803;28;20048;-70
2021/06/08 02:07:32;;;;;;;21.33;16.42;;;;;;;13.81;76.50;102045.13;5024346;28;20033;-71
2021/06/08 02:10:13;;;;;;;26.33;17.88;;;;;;;13.77;76.53;102035.94;5027390;28;20533;-70
2021/06/08 02:12:39;;;;;;;23.35;17.45;;;;;;;13.75;76.59;102047.47;5027901;28;20517;-71
2021/06/08 02:15:06;;;;;;;25.67;16.50;;;;;;;13.73;76.50;102039.81;5024017;28;20041;-71
2021/06/08 02:17:39;;;;;;;23.55;16.98;;;;;;;13.71;76.67;102043.53;5025331;28;20189;-70
2021/06/08 02:20:13;;;;;;;24.95;18.02;;;;;;;13.68;76.61;102036.03;5027669;28;20037;-70
2021/06/08 02:22:44;;;;;;;24.70;16.70;;;;;;;13.63;76.74;102045.06;5027377;28;20025;-70
2021/06/08 02:25:11;;;;;;;25.30;17.15;;;;;;;13.60;76.66;102044.56;5026763;28;20033;-70
2021/06/08 02:27:37;;;;;;;23.85;17.77;;;;;;;13.57;76.90;102047.44;5024545;28;20034;-70
2021/06/08 02:30:03;;;;;;;21.83;16.13;;;;;;;13.52;77.21;102037.44;5027553;28;20049;-71
2021/06/08 02:32:31;;;;;;;27.20;18.08;;;;;;;13.50;77.25;102041.19;5021059;28;20052;-71
2021/06/08 02:34:59;;;;;;;20.33;16.10;;;;;;;13.48;77.24;102048.31;5040891;28;20402;-70
2021/06/08 02:37:25;;;;;;;23.20;17.35;;;;;;;13.46;76.93;102039.84;5025954;28;20142;-71
2021/06/08 02:39:52;;;;;;;21.30;16.30;;;;;;;13.44;77.04;102055.59;5023548;28;20044;-70
2021/06/08 02:42:19;;;;;;;20.73;15.60;;;;;;;13.37;77.35;102052.78;5024637;28;20034;-70
2021/06/08 02:44:46;;;;;;;23.10;16.52;;;;;;;13.35;77.45;102053.84;5025505;28;20441;-70
2021/06/08 02:47:12;;;;;;;22.30;15.60;;;;;;;13.31;77.64;102057.72;5041436;28;20707;-70
2021/06/08 02:49:38;;;;;;;23.80;17.48;;;;;;;13.29;77.72;102054.41;5027405;28;20033;-70
2021/06/08 02:52:05;;;;;;;23.98;16.75;;;;;;;13.25;77.68;102054.69;5027474;28;20044;-71
2021/06/08 02:54:31;;;;;;;22.00;15.88;;;;;;;13.23;77.66;102050.59;5039785;28;20033;-71
2021/06/08 02:56:57;;;;;;;25.85;16.45;;;;;;;13.21;77.68;102048.13;5021465;28;20056;-71
2021/06/08 02:59:27;;;;;;;25.52;16.95;;;;;;;13.17;77.94;102053.78;5026542;28;20036;-71
2021/06/08 03:01:56;;;;;;;25.27;16.85;;;;;;;13.15;78.04;102048.69;5027006;28;20103;-71
2021/06/08 03:04:24;;;;;;;26.05;16.23;;;;;;;13.13;77.85;102042.81;5041489;28;20049;-70
2021/06/08 03:06:54;;;;;;;23.33;16.23;;;;;;;13.13;77.70;102047.19;5026803;28;20379;-70
2021/06/08 03:09:58;;;;;;;21.92;15.02;;;;;;;13.12;77.78;102046.38;5025546;28;20041;-71
2021/06/08 03:12:34;;;;;;;20.15;14.68;;;;;;;13.11;77.40;102038.69;5002131;28;20041;-71
2021/06/08 03:15:03;;;;;;;20.80;14.80;;;;;;;13.10;77.72;102044.88;5028126;28;20030;-70
2021/06/08 03:17:30;;;;;;;21.05;15.10;;;;;;;13.08;78.00;102046.81;5042791;28;20487;-70
2021/06/08 03:20:01;;;;;;;18.55;14.57;;;;;;;13.04;77.81;102044.47;5030902;28;20033;-70
2021/06/08 03:22:30;;;;;;;20.55;15.05;;;;;;;13.02;77.85;102050.81;5029965;28;20029;-70
2021/06/08 03:24:59;;;;;;;20.35;14.60;;;;;;;13.01;77.89;102054.34;5030342;28;20049;-71
2021/06/08 03:27:27;;;;;;;23.75;15.40;;;;;;;12.98;77.79;102052.06;5028922;28;20068;-70
2021/06/08 03:29:53;;;;;;;22.30;16.45;;;;;;;12.96;77.97;102054.78;5030805;28;20026;-71
2021/06/08 03:32:20;;;;;;;18.80;13.93;;;;;;;12.94;77.78;102048.91;5026161;28;20025;-71
2021/06/08 03:34:46;;;;;;;20.85;15.18;;;;;;;12.94;77.82;102050.66;5044065;28;20045;-71
2021/06/08 03:37:12;;;;;;;21.95;15.65;;;;;;;12.92;77.70;102050.84;5025796;28;20303;-70
2021/06/08 03:39:39;;;;;;;21.65;15.27;;;;;;;12.90;78.03;102050.13;5030600;28;20444;-71
2021/06/08 03:42:05;;;;;;;18.08;13.65;;;;;;;12.90;77.81;102049.31;5030259;28;20091;-71
2021/06/08 03:44:34;;;;;;;21.13;13.50;;;;;;;12.89;77.79;102056.31;5029176;28;20029;-70
2021/06/08 03:46:59;;;;;;;18.00;13.27;;;;;;;12.87;78.08;102052.22;5044914;28;20044;-70
2021/06/08 03:49:25;;;;;;;19.45;13.88;;;;;;;12.84;78.17;102051.50;5030536;28;20033;-71
2021/06/08 03:51:53;;;;;;;22.42;14.60;;;;;;;12.84;78.06;102058.50;5029238;28;20063;-71
2021/06/08 03:54:19;;;;;;;18.25;14.25;;;;;;;12.84;77.86;102056.72;5030695;28;20033;-70
2021/06/08 03:56:48;;;;;;;20.63;14.65;;;;;;;12.85;78.00;102054.94;5045612;28;20083;-70
2021/06/08 03:59:15;;;;;;;23.20;15.23;;;;;;;12.85;78.16;102057.56;5045137;28;20393;-70
2021/06/08 04:01:42;;;;;;;20.55;14.25;;;;;;;12.83;78.13;102055.09;5029831;28;20440;-70
2021/06/08 04:04:08;;;;;;;19.77;13.98;;;;;;;12.84;77.97;102061.09;5043733;28;20041;-71
2021/06/08 04:06:34;;;;;;;17.50;13.48;;;;;;;12.84;78.19;102058.50;5029589;28;20022;-71
2021/06/08 04:09:08;;;;;;;21.17;14.43;;;;;;;12.83;78.09;102067.28;5029874;28;20041;-71
2021/06/08 04:11:34;;;;;;;19.25;13.50;;;;;;;12.83;78.24;102059.47;5030345;28;20107;-71
2021/06/08 04:14:00;;;;;;;20.65;14.15;;;;;;;12.84;78.35;102055.91;5029296;28;20044;-71
2021/06/08 04:16:25;;;;;;;20.20;14.80;;;;;;;12.87;78.39;102065.22;5029979;28;20495;-70
2021/06/08 04:18:51;;;;;;;16.60;12.27;;;;;;;12.87;78.34;102054.81;5029770;28;20033;-70
2021/06/08 04:21:16;;;;;;;18.42;13.57;;;;;;;12.90;78.17;102057.94;5028645;28;20033;-71
2021/06/08 04:23:42;;;;;;;20.52;13.68;;;;;;;12.92;77.80;102060.41;5043431;28;20462;-70
2021/06/08 04:26:08;;;;;;;18.38;12.80;;;;;;;12.93;78.42;102055.06;5028893;28;20034;-71
2021/06/08 04:28:33;;;;;;;20.17;14.05;;;;;;;12.94;78.07;102059.31;5025291;28;20033;-70
2021/06/08 04:30:59;;;;;;;19.15;13.40;;;;;;;12.94;78.70;102056.72;5029876;28;20496;-71
2021/06/08 04:33:27;;;;;;;22.27;13.25;;;;;;;12.97;78.65;102055.59;5027059;28;20037;-71
2021/06/08 04:35:53;;;;;;;20.40;12.52;;;;;;;12.98;78.76;102060.69;5028123;28;20714;-71
2021/06/08 04:38:20;;;;;;;17.92;13.32;;;;;;;13.02;78.79;102058.63;5044207;28;20036;-71
2021/06/08 04:40:48;;;;;;;19.58;13.88;;;;;;;13.03;78.85;102060.25;5029501;28;20086;-70
2021/06/08 04:43:13;;;;;;;17.40;12.40;;;;;;;13.07;78.96;102060.78;5028321;28;20091;-71
2021/06/08 04:45:39;;;;;;;19.35;12.38;;;;;;;13.11;78.64;102062.97;5030101;28;20025;-71
2021/06/08 04:48:05;;;;;;;24.40;14.07;;;;;;;13.14;78.73;102059.25;5028011;28;20568;-71
2021/06/08 04:50:31;;;;;;;22.40;13.20;;;;;;;13.20;79.05;102069.09;5027946;28;20052;-71
2021/06/08 04:52:56;;;;;;;24.25;14.70;;;;;;;13.24;79.01;102062.63;5028557;28;20033;-71
2021/06/08 04:55:24;;;;;;;22.05;11.93;;;;;;;13.29;78.79;102067.44;5029707;28;20039;-71
2021/06/08 04:57:53;;;;;;;17.90;11.73;;;;;;;13.30;78.58;102067.31;5028434;28;20025;-71
2021/06/08 05:00:24;;;;;;;16.38;11.98;;;;;;;13.33;78.63;102063.59;5028702;28;20126;-71
2021/06/08 05:03:13;;;;;;;20.88;12.43;;;;;;;13.34;78.51;102070.47;5027728;28;20042;-70
2021/06/08 05:05:46;;;;;;;15.55;10.57;;;;;;;13.37;78.18;102072.75;5026566;28;20045;-71
2021/06/08 05:08:23;;;;;;;;;;;;;;;13.40;77.74;102068.09;5028481;28;20055;-70
2021/06/08 05:10:57;;;;;;;20.25;10.43;;;;;;;13.43;77.63;102073.03;5043575;28;19923;-70
2021/06/08 05:13:25;;;;;;;16.65;11.68;;;;;;;13.44;77.71;102064.22;5026613;28;20086;-70
2021/06/08 05:15:52;;;;;;;15.35;11.25;;;;;;;13.46;77.76;102069.31;5029429;28;20055;-71
2021/06/08 05:18:19;;;;;;;15.27;10.88;;;;;;;13.49;77.88;102068.22;5028240;28;20065;-70
2021/06/08 05:20:46;;;;;;;16.02;10.68;;;;;;;13.52;77.59;102071.31;5029053;28;20052;-71
2021/06/08 05:23:14;;;;;;;17.98;11.82;;;;;;;13.55;77.66;102075.44;5027509;28;20037;-70
2021/06/08 05:25:42;;;;;;;14.27;10.45;;;;;;;13.56;77.81;102075.31;5029624;28;20038;-71
2021/06/08 05:28:08;;;;;;;13.52;9.82;;;;;;;13.58;77.53;102077.75;5027157;28;20389;-71
2021/06/08 05:30:34;;;;;;;15.63;10.93;;;;;;;13.62;77.24;102076.50;5028648;28;20032;-71
2021/06/08 05:32:59;;;;;;;15.43;10.27;;;;;;;13.64;77.29;102074.56;5027452;28;20062;-71
2021/06/08 05:35:28;;;;;;;16.30;10.20;;;;;;;13.65;77.60;102064.97;5028917;28;20160;-71
2021/06/08 05:37:53;;;;;;;12.52;9.63;;;;;;;13.68;77.33;102068.09;5037476;28;20496;-71
2021/06/08 05:40:22;;;;;;;12.40;9.18;;;;;;;13.71;77.04;102072.19;5025644;28;20037;-71
2021/06/08 05:42:47;;;;;;;12.45;9.50;;;;;;;13.72;76.82;102074.66;5028415;28;20040;-71
2021/06/08 05:45:13;;;;;;;15.15;9.82;;;;;;;13.73;76.85;102076.31;5029634;28;20021;-71
2021/06/08 05:47:38;;;;;;;13.32;9.40;;;;;;;13.74;76.48;102077.94;5042287;28;20482;-71
2021/06/08 05:50:04;;;;;;;11.50;9.57;;;;;;;13.73;76.83;102078.94;5026334;28;20037;-71
2021/06/08 05:52:31;;;;;;;13.38;9.65;;;;;;;13.76;76.90;102083.00;5027897;28;20633;-71
2021/06/08 05:54:58;;;;;;;13.27;9.27;;;;;;;13.98;76.16;102079.19;5029021;28;20653;-71
2021/06/08 05:57:24;;;;;;;15.48;10.13;;;;;;;14.04;76.23;102089.03;5026341;28;20037;-71
2021/06/08 05:59:49;;;;;;;15.07;9.30;;;;;;;14.05;76.25;102088.03;5026741;28;20087;-71
2021/06/08 06:02:16;;;;;;;13.18;10.18;;;;;;;14.04;76.37;102086.41;5043815;28;20040;-71
2021/06/08 06:04:44;;;;;;;15.30;11.20;;;;;;;14.06;76.23;102083.66;5023796;28;20564;-71
2021/06/08 06:07:11;;;;;;;13.63;9.57;;;;;;;14.68;75.24;102081.94;5027314;28;20021;-71
2021/06/08 06:09:37;;;;;;;16.95;11.57;;;;;;;15.46;73.11;102075.03;5041843;28;20041;-71
2021/06/08 06:12:06;;;;;;;16.42;10.63;;;;;;;16.11;71.14;102080.50;5042965;28;20032;-71
2021/06/08 06:14:33;;;;;;;18.27;12.27;;;;;;;16.70;69.56;102077.72;5043057;28;20076;-71
2021/06/08 06:16:59;;;;;;;18.88;11.32;;;;;;;17.15;67.01;102075.53;5026756;28;20083;-71
2021/06/08 06:19:26;;;;;;;16.05;11.52;;;;;;;17.60;65.88;102074.03;5025159;28;20033;-71
2021/06/08 06:21:53;;;;;;;19.13;10.40;;;;;;;17.94;64.00;102077.34;5021318;28;20039;-71
2021/06/08 06:24:19;;;;;;;23.17;11.63;;;;;;;18.32;61.13;102083.44;5026505;28;20040;-71
2021/06/08 06:26:45;;;;;;;18.27;10.48;;;;;;;18.58;60.42;102071.75;5026515;28;20025;-71
2021/06/08 06:29:13;;;;;;;22.25;11.98;;;;;;;18.86;58.58;102072.00;5027245;28;20051;-71
2021/06/08 06:31:43;;;;;;;23.98;12.32;;;;;;;19.05;57.74;102079.34;5026406;28;20033;-71
2021/06/08 06:34:14;;;;;;;23.60;12.52;;;;;;;19.41;58.27;102070.72;5024619;28;20414;-71
2021/06/08 06:36:42;;;;;;;30.60;12.55;;;;;;;19.73;56.53;102070.50;5021313;28;20057;-71
2021/06/08 06:39:16;;;;;;;23.92;11.95;;;;;;;20.09;56.72;102067.00;5025951;28;20513;-71
2021/06/08 06:41:44;;;;;;;19.58;10.82;;;;;;;20.31;55.76;102065.19;5027688;28;20129;-71
2021/06/08 06:44:12;;;;;;;17.95;11.65;;;;;;;20.74;55.13;102070.41;5025393;28;20030;-71
2021/06/08 06:46:38;;;;;;;20.98;12.48;;;;;;;20.77;55.15;102064.72;5025065;28;20113;-71
2021/06/08 06:49:05;;;;;;;18.20;10.48;;;;;;;21.37;53.35;102068.47;5023736;28;20037;-71
2021/06/08 06:51:31;;;;;;;15.05;9.65;;;;;;;21.70;52.91;102067.81;5022137;28;20041;-72
2021/06/08 06:53:57;;;;;;;24.35;12.48;;;;;;;21.85;51.96;102069.44;5023343;28;20060;-71
2021/06/08 06:56:23;;;;;;;19.55;10.88;;;;;;;22.03;51.76;102074.97;5024593;28;20092;-72
2021/06/08 06:58:50;;;;;;;20.73;12.02;;;;;;;22.31;51.35;102066.06;5019160;28;20025;-71
2021/06/08 07:01:23;;;;;;;16.52;11.07;;;;;;;22.87;50.27;102067.44;5020110;28;20120;-72
2021/06/08 07:03:56;;;;;;;19.35;11.40;;;;;;;22.66;50.58;102066.66;5021778;28;20064;-72
2021/06/08 07:06:22;;;;;;;17.42;11.30;;;;;;;22.92;50.31;102067.59;5020701;28;20029;-72
2021/06/08 07:08:57;;;;;;;36.60;20.13;;;;;;;23.20;48.66;102063.88;5020662;28;20343;-72
2021/06/08 07:11:23;;;;;;;20.17;11.23;;;;;;;23.44;48.41;102063.16;5020070;28;20116;-72
2021/06/08 07:13:50;;;;;;;15.93;10.55;;;;;;;23.58;48.02;102058.59;5020559;28;20574;-72
2021/06/08 07:16:16;;;;;;;17.50;10.50;;;;;;;23.84;47.55;102062.94;5020924;28;20026;-72
2021/06/08 07:18:45;;;;;;;14.48;8.63;;;;;;;24.26;47.91;102062.44;5037564;28;20041;-72
2021/06/08 07:21:12;;;;;;;24.23;12.80;;;;;;;24.22;47.24;102064.72;5020209;28;20094;-72
2021/06/08 07:23:38;;;;;;;19.02;11.93;;;;;;;24.38;47.19;102065.19;5021032;28;20091;-73
2021/06/08 07:26:04;;;;;;;23.90;12.27;;;;;;;24.51;44.75;102058.97;5021331;28;20037;-73
2021/06/08 07:28:31;;;;;;;20.83;11.10;;;;;;;24.56;46.46;102062.59;5024219;28;20040;-72
2021/06/08 07:30:57;;;;;;;15.93;10.32;;;;;;;24.68;45.68;102058.19;5026553;28;20108;-72
2021/06/08 07:33:26;;;;;;;18.75;11.98;;;;;;;24.39;47.03;102058.84;5026447;28;20088;-72
2021/06/08 07:35:57;;;;;;;16.83;11.05;;;;;;;24.93;44.68;102059.16;5027017;28;20034;-73
2021/06/08 07:38:33;;;;;;;18.65;12.05;;;;;;;25.06;45.04;102056.34;5026124;28;20029;-72
2021/06/08 07:41:11;;;;;;;19.05;10.60;;;;;;;25.30;44.81;102065.28;5024192;28;20513;-73
2021/06/08 07:43:57;;;;;;;18.50;13.05;;;;;;;25.33;43.47;102066.66;5037815;28;20061;-72
2021/06/08 07:46:24;;;;;;;24.92;13.18;;;;;;;25.36;45.70;102069.66;5041789;28;20406;-72
2021/06/08 07:48:53;;;;;;;19.38;11.00;;;;;;;25.74;44.50;102065.88;5026622;28;20041;-73
2021/06/08 07:51:19;;;;;;;16.73;11.15;;;;;;;25.44;43.84;102069.34;5026831;28;20018;-72
2021/06/08 07:53:46;;;;;;;19.30;12.38;;;;;;;25.51;44.21;102074.59;5041651;28;20033;-73
2021/06/08 07:56:12;;;;;;;17.95;11.68;;;;;;;25.58;43.74;102074.47;5025989;28;20026;-73
2021/06/08 07:58:39;;;;;;;15.77;10.48;;;;;;;25.84;42.54;102071.47;5042622;28;20030;-72
2021/06/08 08:01:05;;;;;;;21.63;12.00;;;;;;;25.73;43.81;102074.91;5040897;28;20037;-72
2021/06/08 08:03:32;;;;;;;15.38;10.50;;;;;;;25.91;42.49;102074.00;5029872;28;20040;-72
2021/06/08 08:06:07;;;;;;;17.83;11.43;;;;;;;26.16;41.09;102073.03;5030403;28;20045;-72
2021/06/08 08:08:34;;;;;;;19.65;10.50;;;;;;;26.30;41.32;102073.63;5024858;28;20041;-72
2021/06/08 08:11:01;;;;;;;16.33;10.65;;;;;;;26.18;40.83;102069.13;5028233;28;20042;-73
2021/06/08 08:13:29;;;;;;;14.85;9.25;;;;;;;26.28;41.83;102068.53;5029695;28;20071;-73
2021/06/08 08:15:55;;;;;;;15.13;9.18;;;;;;;26.34;40.72;102072.13;5030135;28;20115;-73
2021/06/08 08:18:22;;;;;;;15.40;9.50;;;;;;;26.45;40.02;102068.66;5030351;28;20438;-73
2021/06/08 08:20:55;;;;;;;16.02;8.68;;;;;;;26.50;40.90;102074.06;5030371;28;20553;-73
2021/06/08 08:23:24;;;;;;;11.73;8.25;;;;;;;26.36;39.24;102065.53;5045692;28;20164;-73
2021/06/08 08:25:50;;;;;;;11.35;8.15;;;;;;;26.64;38.48;102071.22;5044551;28;20703;-73
2021/06/08 08:28:16;;;;;;;12.13;7.60;;;;;;;26.92;38.45;102071.28;5029063;28;20037;-73
2021/06/08 08:30:41;;;;;;;11.05;7.32;;;;;;;27.14;38.79;102057.31;5030716;28;20095;-73
2021/06/08 08:33:07;;;;;;;11.35;8.45;;;;;;;27.41;38.65;102062.09;5030334;28;20033;-73
2021/06/08 08:35:35;;;;;;;14.90;7.75;;;;;;;27.11;37.79;102058.59;5028967;28;20109;-73
2021/06/08 08:38:01;;;;;;;14.35;8.15;;;;;;;27.23;38.20;102053.22;5045207;28;20029;-73
2021/06/08 08:40:27;;;;;;;11.80;7.93;;;;;;;27.53;37.08;102062.84;5029508;28;20040;-73
2021/06/08 08:42:54;;;;;;;11.00;7.47;;;;;;;27.48;37.68;102052.94;5045654;28;20121;-73
2021/06/08 08:45:20;;;;;;;11.07;7.88;;;;;;;27.63;36.70;102055.03;5045255;28;20112;-73
2021/06/08 08:47:46;;;;;;;12.85;6.63;;;;;;;27.54;36.53;102051.16;5030608;28;20148;-73
2021/06/08 08:50:17;;;;;;;9.23;6.70;;;;;;;27.65;36.28;102046.81;5032585;28;20482;-73
2021/06/08 08:52:44;;;;;;;8.85;6.00;;;;;;;27.50;35.85;102050.84;5043873;28;20438;-73
2021/06/08 08:55:11;;;;;;;12.68;5.38;;;;;;;27.27;34.69;102046.41;5026194;28;20045;-73
2021/06/08 08:57:39;;;;;;;8.52;4.80;;;;;;;27.49;33.30;102037.75;5042016;28;20056;-73
2021/06/08 09:00:06;;;;;;;12.35;5.28;;;;;;;27.42;34.76;102043.22;5026095;28;20029;-73
2021/06/08 09:02:32;;;;;;;7.35;5.65;;;;;;;27.36;34.64;102039.66;5044750;28;20042;-73
2021/06/08 09:05:00;;;;;;;9.10;5.57;;;;;;;27.25;35.64;102037.03;5042852;28;20030;-73
2021/06/08 09:07:25;;;;;;;8.40;5.78;;;;;;;27.32;36.59;102037.72;5028526;28;20038;-73
2021/06/08 09:09:51;;;;;;;12.73;6.80;;;;;;;27.09;37.10;102028.75;5028463;28;20086;-73
2021/06/08 09:12:17;;;;;;;9.38;5.90;;;;;;;26.92;35.37;102042.00;5029454;28;20120;-73
2021/06/08 09:14:42;;;;;;;8.23;6.07;;;;;;;27.27;33.98;102030.44;5028367;28;20111;-73
2021/06/08 09:17:08;;;;;;;10.85;4.43;;;;;;;27.19;35.25;102033.47;5043217;28;20420;-73
2021/06/08 09:19:35;;;;;;;8.88;6.25;;;;;;;26.68;34.61;102029.81;5028478;28;20034;-73
2021/06/08 09:22:01;;;;;;;11.80;6.03;;;;;;;26.91;36.03;102027.06;5043789;28;20017;-73
2021/06/08 09:24:29;;;;;;;10.68;7.18;;;;;;;26.94;36.06;102029.28;5006310;28;20144;-73
2021/06/08 09:27:00;;;;;;;9.68;6.15;;;;;;;26.96;37.80;102026.38;5044696;28;20033;-74
2021/06/08 09:29:33;;;;;;;8.25;6.13;;;;;;;27.50;37.36;102018.06;5042941;28;20030;-73
2021/06/08 09:32:21;;;;;;;14.48;6.05;;;;;;;27.61;36.16;102016.38;5023813;28;20064;-73
2021/06/08 09:34:50;;;;;;;8.75;6.22;;;;;;;27.75;35.97;102018.47;5028332;28;20053;-73
2021/06/08 09:37:28;;;;;;;10.38;5.40;;;;;;;27.75;36.53;102018.47;5029499;28;20021;-73
2021/06/08 09:39:53;;;;;;;8.73;6.75;;;;;;;27.91;34.15;102016.88;5041346;28;20046;-73
2021/06/08 09:42:27;;;;;;;5.93;4.57;;;;;;;27.80;34.25;102012.41;5041745;28;20047;-73
2021/06/08 09:44:53;;;;;;;7.10;5.32;;;;;;;27.49;34.07;102014.59;5044144;28;20021;-73
2021/06/08 09:47:29;;;;;;;7.93;5.68;;;;;;;27.50;33.92;102010.06;5026890;28;20510;-73
2021/06/08 09:49:54;;;;;;;7.97;5.00;;;;;;;26.78;35.76;102016.69;5044036;28;20489;-73
2021/06/08 09:52:21;;;;;;;6.20;4.18;;;;;;;26.53;36.39;102014.31;5043230;28;20037;-73
2021/06/08 09:54:50;;;;;;;7.63;5.65;;;;;;;26.07;36.57;102022.06;5026079;28;20041;-73
2021/06/08 09:57:29;;;;;;;5.93;4.25;;;;;;;26.50;36.52;102018.22;5028042;28;20478;-73
2021/06/08 10:00:00;;;;;;;10.07;4.80;;;;;;;27.12;34.73;102019.47;5027546;28;20041;-73
2021/06/08 10:02:38;;;;;;;7.38;3.92;;;;;;;27.24;34.93;102009.59;5043484;28;20036;-73
2021/06/08 10:05:25;;;;;;;8.25;5.38;;;;;;;26.61;35.70;102009.44;5023337;28;20068;-73
2021/06/08 10:07:51;;;;;;;7.93;5.22;;;;;;;26.65;35.56;102017.75;5028189;28;20040;-74
2021/06/08 10:10:25;;;;;;;9.00;4.10;;;;;;;26.94;35.04;102009.84;5025376;28;20032;-72
2021/06/08 10:13:05;;;;;;;3.95;3.15;;;;;;;27.19;34.21;102014.81;5023816;28;20030;-73
2021/06/08 10:15:41;;;;;;;6.65;4.75;;;;;;;27.15;34.10;102000.38;5040904;28;20037;-73
2021/06/08 10:18:09;;;;;;;5.88;4.10;;;;;;;27.08;35.08;101997.06;5043101;28;20103;-73
2021/06/08 10:20:37;;;;;;;8.43;4.25;;;;;;;27.32;33.16;101995.13;5043472;28;20713;-73
2021/06/08 10:23:25;;;;;;;8.40;4.35;;;;;;;27.16;34.27;101997.50;5044016;28;20038;-73
2021/06/08 10:25:53;;;;;;;6.95;4.50;;;;;;;27.47;33.19;102006.03;5042266;28;20029;-73
2021/06/08 10:28:18;;;;;;;7.35;4.50;;;;;;;27.47;34.84;101995.38;5027495;28;20140;-73
2021/06/08 10:30:46;;;;;;;7.47;4.18;;;;;;;27.21;33.64;101998.63;5041865;28;20460;-73
2021/06/08 10:33:11;;;;;;;9.07;5.15;;;;;;;27.47;34.51;101999.91;5022248;28;20511;-74
2021/06/08 10:35:37;;;;;;;9.23;5.72;;;;;;;27.41;34.81;101995.53;5026627;28;20048;-72
2021/06/08 10:38:04;;;;;;;6.97;4.13;;;;;;;27.43;35.38;102001.44;5023941;28;20029;-73
2021/06/08 10:40:30;;;;;;;6.63;5.00;;;;;;;27.65;33.94;101999.69;5027810;28;20038;-73
2021/06/08 10:42:57;;;;;;;6.60;5.30;;;;;;;27.48;34.81;101994.34;5026980;28;20617;-73
2021/06/08 10:45:31;;;;;;;10.75;5.47;;;;;;;27.61;32.39;101995.88;5026751;28;20033;-73
2021/06/08 10:48:04;;;;;;;7.65;4.20;;;;;;;28.10;34.15;101984.63;5027997;28;20036;-73
2021/06/08 10:50:32;;;;;;;7.70;5.57;;;;;;;28.19;30.74;101991.16;5028099;28;20052;-74
2021/06/08 10:52:59;;;;;;;10.13;6.47;;;;;;;28.11;33.55;101989.72;5030115;28;20112;-73
2021/06/08 10:55:34;;;;;;;8.15;5.90;;;;;;;27.81;32.52;101989.25;5028483;28;20438;-73
2021/06/08 10:58:00;;;;;;;7.15;5.47;;;;;;;27.52;33.32;101989.31;5042777;28;20033;-73
2021/06/08 11:00:26;;;;;;;9.77;5.57;;;;;;;27.71;34.78;101997.91;5027367;28;20498;-73
2021/06/08 11:02:59;;;;;;;9.60;7.15;;;;;;;27.36;32.64;101990.94;5039774;28;20038;-74
2021/06/08 11:05:57;;;;;;;9.05;5.57;;;;;;;27.00;33.63;101998.25;5039806;28;20094;-73
2021/06/08 11:09:00;;;;;;;6.57;5.25;;;;;;;26.67;34.55;101994.41;5024992;28;20034;-73
2021/06/08 11:11:49;;;;;;;6.85;5.88;;;;;;;27.07;36.15;101993.59;5036191;28;20033;-73
2021/06/08 11:14:55;;;;;;;11.02;6.60;;;;;;;27.37;32.96;101992.56;5041913;28;20041;-75
2021/06/08 11:17:33;;;;;;;8.82;5.60;;;;;;;27.42;34.54;101986.50;5025379;28;20097;-73
2021/06/08 11:20:05;;;;;;;6.70;4.85;;;;;;;27.46;33.12;101987.63;5040832;28;20053;-73
2021/06/08 11:22:34;;;;;;;8.32;7.22;;;;;;;27.51;32.04;101991.19;5025996;28;20434;-74